Time;durP1;ratioP1;P1;durP2;ratioP2;P2;SDS_P1;SDS_P2;PMS_P1;PMS_P2;Temp;Humidity;BMP_temperature;BMP_pressure;BME280_temperature;BME280_humidity;BME280_pressure;Samples;Min_cycle;Max_cycle;Signal;HPM_P1;HPM_P2
2022/03/30 00:02:48;;;;;;;;;42.50;33.25;;;;;11.47;62.24;100811.88;146600;592;47010;-72
2022/03/30 00:05:40;;;;;;;;;38.50;31.50;;;;;11.37;61.57;100810.53;146604;576;46020;-71
2022/03/30 00:08:32;;;;;;;;;36.75;32.00;;;;;11.36;61.31;100802.66;146603;572;47011;-71
2022/03/30 00:11:24;;;;;;;;;36.50;31.75;;;;;11.35;62.03;100798.28;146604;621;46020;-71
2022/03/30 00:14:17;;;;;;;;;38.75;31.50;;;;;11.31;61.21;100794.66;146602;622;47010;-70
2022/03/30 00:17:09;;;;;;;;;32.00;29.75;;;;;11.30;61.20;100796.31;146608;617;46020;-71
2022/03/30 00:20:02;;;;;;;;;33.00;26.50;;;;;11.33;61.07;100787.81;146604;576;46010;-71
2022/03/30 00:22:54;;;;;;;;;31.75;27.50;;;;;11.32;62.54;100791.22;146602;628;46012;-71
2022/03/30 00:25:47;;;;;;;;;31.25;26.75;;;;;11.26;61.50;100785.72;146601;620;46012;-71
2022/03/30 00:28:39;;;;;;;;;27.75;26.00;;;;;11.23;62.08;100788.16;146605;636;46020;-71
2022/03/30 00:31:31;;;;;;;;;25.75;23.00;;;;;11.18;61.85;100787.94;146605;582;46016;-71
2022/03/30 00:34:23;;;;;;;;;25.50;23.75;;;;;11.11;61.54;100788.44;146604;577;46020;-71
2022/03/30 00:37:16;;;;;;;;;24.25;21.00;;;;;11.01;61.77;100776.72;146600;689;46012;-71
2022/03/30 00:40:10;;;;;;;;;26.00;22.50;;;;;10.93;61.89;100775.44;146607;578;46020;-71
2022/03/30 00:43:02;;;;;;;;;22.25;20.50;;;;;10.88;61.89;100779.53;146604;598;46010;-71
2022/03/30 00:45:55;;;;;;;;;35.75;30.75;;;;;10.80;63.31;100768.75;146601;620;47008;-69
2022/03/30 00:48:47;;;;;;;;;27.00;23.75;;;;;10.69;63.20;100769.03;146601;742;47010;-71
2022/03/30 00:51:40;;;;;;;;;27.00;21.25;;;;;10.58;63.56;100769.34;146607;663;46020;-70
2022/03/30 00:54:33;;;;;;;;;23.25;22.25;;;;;10.47;63.31;100772.22;146601;588;47012;-70
2022/03/30 00:57:28;;;;;;;;;21.50;17.75;;;;;10.43;63.50;100775.44;146605;604;46020;-69
2022/03/30 01:00:20;;;;;;;;;25.00;21.75;;;;;10.43;63.98;100778.03;146604;649;47010;-73
2022/03/30 01:03:12;;;;;;;;;29.25;25.25;;;;;10.36;63.86;100775.09;146600;607;46020;-74
2022/03/30 01:06:05;;;;;;;;;30.00;21.25;;;;;10.29;64.27;100770.41;146605;582;47010;-74
2022/03/30 01:08:57;;;;;;;;;26.50;22.25;;;;;10.26;63.49;100765.06;146605;569;46918;-74
2022/03/30 01:11:50;;;;;;;;;22.75;20.00;;;;;10.24;64.37;100765.75;146604;565;47010;-75
2022/03/30 01:14:42;;;;;;;;;24.75;22.75;;;;;10.20;64.53;100764.72;146608;576;46008;-75
2022/03/30 01:17:34;;;;;;;;;24.00;20.25;;;;;10.20;63.98;100762.13;146602;583;47912;-72
2022/03/30 01:20:27;;;;;;;;;23.00;19.00;;;;;10.22;64.92;100763.09;146608;584;46020;-74
2022/03/30 01:23:21;;;;;;;;;20.75;19.00;;;;;10.21;64.77;100757.81;146605;632;46016;-74
2022/03/30 01:26:12;;;;;;;;;25.50;21.75;;;;;10.25;64.06;100762.34;146608;627;46008;-74
2022/03/30 01:32:29;;;;;;;;;18.50;18.00;;;;;10.35;63.16;100762.97;146605;635;47012;-69
2022/03/30 01:35:21;;;;;;;;;22.75;19.00;;;;;10.35;63.88;100762.09;146605;663;45912;-71
2022/03/30 01:38:13;;;;;;;;;18.50;16.75;;;;;10.30;64.19;100767.00;146608;593;45046;-72
2022/03/30 01:41:06;;;;;;;;;27.25;21.25;;;;;10.26;64.19;100754.72;146607;763;46016;-76
2022/03/30 01:43:58;;;;;;;;;19.75;17.00;;;;;10.25;63.32;100757.16;146609;631;46008;-77
2022/03/30 01:46:50;;;;;;;;;20.00;16.75;;;;;10.26;63.98;100753.78;146604;702;45912;-76
2022/03/30 01:49:43;;;;;;;;;16.75;16.75;;;;;10.28;64.58;100754.78;146609;614;46012;-74
2022/03/30 01:52:35;;;;;;;;;19.25;17.50;;;;;10.26;63.80;100754.72;146602;571;46912;-75
2022/03/30 01:55:27;;;;;;;;;22.75;20.75;;;;;10.26;63.06;100746.00;146608;615;46020;-75
2022/03/30 01:58:20;;;;;;;;;16.75;15.75;;;;;10.29;62.86;100744.50;146602;569;46912;-75
2022/03/30 02:01:13;;;;;;;;;21.25;18.00;;;;;10.30;62.63;100740.22;146601;603;46021;-75
2022/03/30 02:04:08;;;;;;;;;20.50;19.25;;;;;10.34;62.89;100745.66;146609;613;45914;-75
2022/03/30 02:07:02;;;;;;;;;17.75;16.50;;;;;10.32;63.93;100733.41;146607;643;46008;-75
2022/03/30 02:09:54;;;;;;;;;18.25;16.75;;;;;10.22;64.31;100734.59;146604;599;46012;-72
2022/03/30 02:12:46;;;;;;;;;17.00;15.75;;;;;10.07;63.65;100733.78;146608;635;46008;-72
2022/03/30 02:15:38;;;;;;;;;15.75;15.25;;;;;10.00;63.31;100729.06;146604;582;46017;-75
2022/03/30 02:18:30;;;;;;;;;22.50;18.75;;;;;9.95;63.40;100727.12;146606;583;47008;-72
2022/03/30 02:21:24;;;;;;;;;19.25;17.50;;;;;9.94;65.17;100719.28;146601;581;47013;-72
2022/03/30 02:24:16;;;;;;;;;20.00;17.50;;;;;9.85;64.27;100708.44;146607;615;46008;-71
2022/03/30 02:27:09;;;;;;;;;24.25;22.00;;;;;9.78;64.39;100704.63;146603;609;46012;-71
2022/03/30 02:30:01;;;;;;;;;29.50;21.00;;;;;9.77;64.91;100710.59;146605;575;46008;-69
2022/03/30 02:32:53;;;;;;;;;24.00;20.75;;;;;9.73;64.09;100716.44;146604;592;46914;-71
2022/03/30 02:35:46;;;;;;;;;23.50;18.00;;;;;9.74;64.02;100710.44;146609;601;46020;-71
2022/03/30 02:38:38;;;;;;;;;18.75;17.75;;;;;9.74;64.58;100717.31;146602;569;47010;-71
2022/03/30 02:41:29;;;;;;;;;20.25;18.25;;;;;9.69;66.09;100724.84;146604;583;46020;-71
2022/03/30 02:44:22;;;;;;;;;16.25;15.00;;;;;9.60;65.16;100720.06;146607;604;46011;-72
2022/03/30 02:47:14;;;;;;;;;17.00;16.00;;;;;9.53;65.18;100727.38;146607;584;46008;-71
2022/03/30 02:50:07;;;;;;;;;23.75;20.00;;;;;9.49;65.35;100731.50;146604;596;46016;-71
2022/03/30 02:52:59;;;;;;;;;27.50;22.75;;;;;9.49;66.11;100728.91;146606;612;46008;-71
2022/03/30 02:55:52;;;;;;;;;20.00;16.50;;;;;9.45;66.17;100721.78;146604;608;46029;-71
2022/03/30 02:58:44;;;;;;;;;34.75;32.75;;;;;9.42;65.80;100719.91;146606;570;46009;-71
2022/03/30 03:01:37;;;;;;;;;23.25;17.00;;;;;9.37;65.97;100708.41;146603;585;46016;-73
2022/03/30 03:04:28;;;;;;;;;25.25;19.00;;;;;9.37;65.47;100712.69;146608;571;46008;-72
2022/03/30 03:07:21;;;;;;;;;31.50;26.25;;;;;9.39;66.91;100708.50;146607;590;45914;-69
2022/03/30 03:10:13;;;;;;;;;35.25;28.00;;;;;9.41;66.45;100709.50;146607;653;46008;-72
2022/03/30 03:13:05;;;;;;;;;18.50;18.50;;;;;9.42;65.98;100709.56;146605;670;46011;-71
2022/03/30 03:15:57;;;;;;;;;22.50;18.75;;;;;9.44;64.95;100710.56;146607;577;46008;-77
2022/03/30 03:18:49;;;;;;;;;41.50;32.25;;;;;9.45;66.60;100711.44;146605;624;46010;-77
2022/03/30 03:21:42;;;;;;;;;52.50;42.50;;;;;9.49;65.56;100722.03;146600;571;47008;-77
2022/03/30 03:24:34;;;;;;;;;30.00;26.50;;;;;9.49;65.14;100732.37;146605;600;46029;-77
2022/03/30 03:27:28;;;;;;;;;48.75;40.00;;;;;9.52;64.98;100739.44;146602;796;46020;-73
2022/03/30 03:30:20;;;;;;;;;34.50;29.00;;;;;9.49;65.23;100740.16;146602;600;46016;-75
2022/03/30 03:33:15;;;;;;;;;32.50;28.00;;;;;9.52;64.56;100739.44;146604;654;47008;-75
2022/03/30 03:36:07;;;;;;;;;26.25;23.00;;;;;9.51;65.00;100736.78;146603;595;46011;-75
2022/03/30 03:38:59;;;;;;;;;25.25;22.00;;;;;9.46;65.48;100739.97;146606;584;47012;-74
2022/03/30 03:41:51;;;;;;;;;25.25;21.25;;;;;9.43;65.16;100736.31;146599;620;47013;-72
2022/03/30 03:44:44;;;;;;;;;25.00;21.75;;;;;9.38;67.94;100737.78;146608;622;46012;-69
2022/03/30 03:47:37;;;;;;;;;23.50;21.75;;;;;9.35;68.54;100742.78;146605;580;46012;-70
2022/03/30 03:50:30;;;;;;;;;22.00;21.25;;;;;9.31;67.32;100743.41;146604;595;47012;-76
2022/03/30 03:53:21;;;;;;;;;25.50;22.50;;;;;9.33;67.49;100746.97;146604;591;46016;-76
2022/03/30 03:56:13;;;;;;;;;45.50;36.50;;;;;9.36;67.14;100748.03;146606;589;46008;-75
2022/03/30 03:59:06;;;;;;;;;25.75;24.75;;;;;9.39;67.25;100750.81;146602;589;45913;-73
2022/03/30 04:01:57;;;;;;;;;41.75;32.75;;;;;9.40;66.41;100752.56;146605;622;46008;-72
2022/03/30 04:04:50;;;;;;;;;22.00;20.75;;;;;9.43;67.33;100750.16;146603;565;46017;-73
2022/03/30 04:07:42;;;;;;;;;39.00;32.25;;;;;9.42;66.80;100742.31;146608;603;46020;-73
2022/03/30 04:10:34;;;;;;;;;26.25;23.75;;;;;9.42;66.83;100747.50;146605;593;46010;-74
2022/03/30 04:13:26;;;;;;;;;16.50;14.50;;;;;9.44;65.92;100748.50;146608;597;46012;-74
2022/03/30 04:16:19;;;;;;;;;26.00;25.00;;;;;9.51;66.01;100755.78;146603;719;46010;-74
2022/03/30 04:19:11;;;;;;;;;27.50;25.25;;;;;9.57;67.29;100747.47;146608;621;46008;-73
2022/03/30 04:22:03;;;;;;;;;32.50;27.75;;;;;9.63;66.71;100755.56;146605;603;46010;-72
2022/03/30 04:24:55;;;;;;;;;25.75;24.00;;;;;9.70;66.18;100757.69;146605;620;47008;-73
2022/03/30 04:27:52;;;;;;;;;30.25;25.00;;;;;9.76;65.29;100757.12;146606;580;46011;-75
2022/03/30 04:30:44;;;;;;;;;37.50;30.25;;;;;9.82;65.20;100765.25;146607;604;46020;-73
2022/03/30 04:33:36;;;;;;;;;35.50;32.00;;;;;9.86;65.08;100762.87;146599;601;46017;-73
2022/03/30 04:36:29;;;;;;;;;35.00;29.75;;;;;9.92;64.52;100775.28;146604;630;47008;-73
2022/03/30 04:39:21;;;;;;;;;37.00;33.00;;;;;9.95;64.50;100776.34;146603;606;46016;-74
2022/03/30 04:42:14;;;;;;;;;40.75;30.25;;;;;10.00;64.81;100786.06;146603;564;46021;-74
2022/03/30 04:45:07;;;;;;;;;30.50;23.75;;;;;9.99;64.76;100790.34;146606;580;46010;-74
2022/03/30 04:47:59;;;;;;;;;33.00;27.00;;;;;9.95;64.73;100806.53;146607;596;45020;-73
2022/03/30 04:50:51;;;;;;;;;33.50;23.50;;;;;10.01;65.05;100793.03;146604;613;46010;-73
2022/03/30 04:53:43;;;;;;;;;26.00;20.50;;;;;10.05;65.11;100792.38;146604;603;46020;-74
2022/03/30 04:56:35;;;;;;;;;33.75;28.75;;;;;10.12;66.44;100795.41;146604;588;47010;-73
2022/03/30 04:59:28;;;;;;;;;27.75;24.50;;;;;10.36;65.87;100794.97;146607;584;46020;-73
2022/03/30 05:02:20;;;;;;;;;27.00;23.25;;;;;10.72;65.95;100805.50;146604;589;47010;-73
2022/03/30 05:05:13;;;;;;;;;37.75;30.00;;;;;11.10;65.01;100810.03;146608;629;46008;-73
2022/03/30 05:08:05;;;;;;;;;47.00;38.50;;;;;11.51;64.32;100804.28;146605;613;46912;-73
2022/03/30 05:10:57;;;;;;;;;28.50;27.75;;;;;11.90;63.11;100814.84;146610;637;46008;-76
2022/03/30 05:13:49;;;;;;;;;29.25;27.00;;;;;12.27;62.47;100816.53;146604;650;46012;-76
2022/03/30 05:16:41;;;;;;;;;45.00;35.25;;;;;12.61;61.40;100812.84;146607;631;46008;-74
2022/03/30 05:19:34;;;;;;;;;57.25;45.50;;;;;12.87;59.99;100812.31;146604;577;47011;-74
2022/03/30 05:22:26;;;;;;;;;59.00;46.50;;;;;13.07;59.44;100820.06;146603;602;46025;-74
2022/03/30 05:25:20;;;;;;;;;26.50;23.00;;;;;13.12;59.11;100823.78;146604;591;47010;-75
2022/03/30 05:28:11;;;;;;;;;40.25;32.75;;;;;13.16;59.07;100826.56;146607;564;46020;-75
2022/03/30 05:31:04;;;;;;;;;48.50;39.00;;;;;13.23;58.98;100821.59;146607;581;46010;-73
2022/03/30 05:33:56;;;;;;;;;50.00;39.00;;;;;13.27;58.59;100819.25;146609;601;45021;-73
2022/03/30 05:36:48;;;;;;;;;46.25;38.00;;;;;13.30;58.66;100821.97;146604;729;46016;-72
2022/03/30 05:39:41;;;;;;;;;42.75;35.50;;;;;13.37;58.90;100821.41;146606;633;46008;-72
2022/03/30 05:42:33;;;;;;;;;44.25;34.75;;;;;13.49;58.51;100825.31;146602;570;47012;-71
2022/03/30 05:45:26;;;;;;;;;41.75;35.25;;;;;13.64;58.14;100818.12;146602;582;47008;-71
2022/03/30 05:48:18;;;;;;;;;47.75;37.50;;;;;13.81;58.05;100818.81;146605;606;46016;-71
2022/03/30 05:51:11;;;;;;;;;41.75;34.50;;;;;14.00;57.88;100831.72;146605;586;46020;-71
2022/03/30 05:54:03;;;;;;;;;47.00;39.25;;;;;14.10;57.29;100827.75;146604;627;46912;-72
2022/03/30 05:57:01;;;;;;;;;49.00;37.75;;;;;14.24;56.76;100830.91;146605;592;46021;-72
2022/03/30 05:59:54;;;;;;;;;67.00;52.25;;;;;14.38;56.75;100832.28;146603;571;46016;-70
2022/03/30 06:02:46;;;;;;;;;50.25;39.25;;;;;14.57;56.50;100833.91;146607;625;46020;-70
2022/03/30 06:05:38;;;;;;;;;44.25;35.25;;;;;14.75;56.91;100828.47;146602;585;46027;-68
2022/03/30 06:08:31;;;;;;;;;50.00;38.75;;;;;14.92;56.69;100822.12;146608;563;46008;-69
2022/03/30 06:11:23;;;;;;;;;49.25;39.00;;;;;15.13;56.23;100823.69;146601;573;47012;-68
2022/03/30 06:14:15;;;;;;;;;48.50;38.75;;;;;15.37;55.60;100816.69;146606;605;46008;-69
2022/03/30 06:17:09;;;;;;;;;34.25;29.25;;;;;15.62;54.83;100823.59;146604;650;46016;-69
2022/03/30 06:20:03;;;;;;;;;45.00;37.00;;;;;15.84;54.56;100819.97;146602;569;46021;-68
2022/03/30 06:22:57;;;;;;;;;40.00;33.50;;;;;16.03;54.06;100816.19;146600;602;46016;-70
2022/03/30 06:25:49;;;;;;;;;45.00;35.75;;;;;16.19;53.01;100819.28;146606;594;46009;-70
2022/03/30 06:28:41;;;;;;;;;40.00;34.00;;;;;16.33;52.62;100808.41;146599;608;47012;-70
2022/03/30 06:31:33;;;;;;;;;35.50;28.75;;;;;16.54;52.24;100815.06;146605;641;47008;-70
2022/03/30 06:34:25;;;;;;;;;31.75;30.25;;;;;16.68;52.34;100811.13;146604;627;46016;-71
2022/03/30 06:37:17;;;;;;;;;36.25;30.75;;;;;16.81;51.30;100815.00;146606;591;46020;-71
2022/03/30 06:40:11;;;;;;;;;26.00;23.75;;;;;16.91;51.82;100814.38;146606;570;46011;-71
2022/03/30 06:43:03;;;;;;;;;30.75;29.00;;;;;17.08;51.32;100823.59;146605;602;46021;-71
2022/03/30 06:45:55;;;;;;;;;40.25;31.75;;;;;17.22;51.64;100812.59;146603;580;46912;-71
2022/03/30 06:48:47;;;;;;;;;35.25;30.50;;;;;17.30;51.01;100816.28;146604;603;46008;-69
2022/03/30 06:51:40;;;;;;;;;33.75;28.25;;;;;17.41;51.19;100825.28;146604;583;46012;-70
2022/03/30 06:54:32;;;;;;;;;33.50;27.50;;;;;17.57;51.00;100820.44;146604;620;47008;-70
2022/03/30 06:57:24;;;;;;;;;32.25;26.00;;;;;17.71;50.27;100813.78;146605;595;46016;-70
2022/03/30 07:00:17;;;;;;;;;30.00;27.00;;;;;17.87;49.58;100808.06;146606;576;46020;-70
2022/03/30 07:03:10;;;;;;;;;33.50;28.75;;;;;18.03;49.87;100804.06;146602;621;46017;-70
2022/03/30 07:06:04;;;;;;;;;33.75;29.25;;;;;18.20;49.13;100820.19;146604;639;46020;-71
2022/03/30 07:12:07;;;;;;;;;29.75;27.00;;;;;18.39;49.37;100824.09;146608;573;46021;-73
2022/03/30 07:14:59;;;;;;;;;44.00;34.00;;;;;17.67;49.37;100693.97;146601;563;47010;-73
2022/03/30 07:18:00;;;;;;;;;45.25;37.00;;;;;18.43;50.12;100837.31;146604;625;47008;-72
2022/03/30 07:20:52;;;;;;;;;45.75;37.75;;;;;18.45;50.32;100832.97;146608;579;45910;-71
2022/03/30 07:23:44;;;;;;;;;47.50;36.75;;;;;18.44;49.94;100835.56;146608;579;46020;-74
2022/03/30 07:26:37;;;;;;;;;40.00;34.50;;;;;18.43;49.91;100833.78;146604;607;46012;-70
2022/03/30 07:29:29;;;;;;;;;48.25;39.00;;;;;18.52;51.84;100841.00;146605;584;47008;-74
2022/03/30 07:32:23;;;;;;;;;44.75;35.75;;;;;18.61;52.15;100833.28;146603;583;46016;-70
2022/03/30 07:35:18;;;;;;;;;46.50;36.50;;;;;18.61;51.16;100826.31;146606;577;46008;-71
2022/03/30 07:38:10;;;;;;;;;43.25;33.75;;;;;18.65;52.43;100830.75;146604;599;46010;-71
2022/03/30 07:41:02;;;;;;;;;35.00;29.00;;;;;18.68;52.12;100833.44;146607;580;45021;-69
2022/03/30 07:43:54;;;;;;;;;34.75;30.25;;;;;18.70;52.43;100847.50;146602;607;46016;-71
2022/03/30 07:46:48;;;;;;;;;38.25;33.00;;;;;18.67;51.96;100839.56;146604;626;46020;-75
2022/03/30 07:49:41;;;;;;;;;36.00;30.00;;;;;18.63;51.47;100849.97;146604;564;46010;-76
2022/03/30 07:52:33;;;;;;;;;35.50;30.75;;;;;18.61;51.40;100834.19;146604;591;47008;-66
2022/03/30 07:55:26;;;;;;;;;37.75;30.75;;;;;18.66;51.73;100837.78;146603;610;46017;-70
2022/03/30 07:58:18;;;;;;;;;50.00;40.50;;;;;18.66;51.64;100840.41;146605;751;47008;-71
2022/03/30 08:01:11;;;;;;;;;50.75;40.50;;;;;18.41;51.67;100839.03;146604;602;46010;-70
2022/03/30 08:04:03;;;;;;;;;48.75;41.00;;;;;18.22;52.89;100829.87;146608;618;45021;-72
2022/03/30 08:06:55;;;;;;;;;49.50;40.25;;;;;18.06;53.44;100829.50;146604;581;46016;-71
2022/03/30 08:09:47;;;;;;;;;54.50;42.50;;;;;17.97;53.69;100833.69;146609;571;46008;-71
2022/03/30 08:12:44;;;;;;;;;52.00;40.25;;;;;17.88;53.62;100830.84;146601;608;46016;-71
2022/03/30 08:15:38;;;;;;;;;60.50;47.75;;;;;17.76;54.47;100830.53;146603;589;47008;-70
2022/03/30 08:18:29;;;;;;;;;67.75;53.25;;;;;17.71;54.61;100837.41;146604;563;46017;-71
2022/03/30 08:24:31;;;;;;;;;64.25;48.75;;;;;17.60;55.05;100831.91;146602;694;46017;-70
2022/03/30 08:27:26;;;;;;;;;52.25;42.00;;;;;17.55;55.20;100830.91;146608;564;45020;-70
2022/03/30 08:30:18;;;;;;;;;57.50;46.00;;;;;17.52;55.74;100829.09;146605;598;46016;-71
2022/03/30 08:33:10;;;;;;;;;56.75;43.00;;;;;17.57;55.07;100825.69;146609;578;46008;-72
2022/03/30 08:36:02;;;;;;;;;50.50;41.25;;;;;17.59;54.79;100830.13;146605;612;46010;-71
2022/03/30 08:38:55;;;;;;;;;48.75;40.00;;;;;17.50;54.24;100830.75;146602;613;47020;-70
2022/03/30 08:41:49;;;;;;;;;53.75;42.50;;;;;17.53;54.67;100835.22;146602;604;46016;-71
2022/03/30 08:44:41;;;;;;;;;47.00;38.50;;;;;17.50;53.97;100832.50;146603;621;47008;-71
2022/03/30 08:47:35;;;;;;;;;47.00;38.00;;;;;17.53;54.11;100822.97;146602;596;46017;-71
2022/03/30 08:50:27;;;;;;;;;40.25;33.75;;;;;17.55;52.66;100828.28;146609;698;46028;-71
2022/03/30 08:53:20;;;;;;;;;43.25;34.25;;;;;17.56;52.61;100816.94;146605;569;47011;-70
2022/03/30 08:56:12;;;;;;;;;40.50;33.75;;;;;17.58;52.89;100819.59;146608;586;46008;-71
2022/03/30 08:59:24;;;;;;;;;40.00;33.25;;;;;17.60;53.18;100846.72;146601;613;47010;-71
2022/03/30 09:02:16;;;;;;;;;40.50;32.00;;;;;17.63;51.83;100817.97;146605;600;47009;-71
2022/03/30 09:05:41;;;;;;;;;39.50;31.00;;;;;16.27;51.40;100582.31;146599;597;47010;-71
2022/03/30 09:08:32;;;;;;;;;36.75;31.50;;;;;17.53;50.95;100816.84;146605;597;46022;-71
2022/03/30 09:11:25;;;;;;;;;35.75;29.50;;;;;17.46;51.22;100812.31;146604;606;47010;-71
2022/03/30 09:14:18;;;;;;;;;36.25;28.25;;;;;16.64;50.64;100670.53;146603;620;46020;-71
2022/03/30 09:17:12;;;;;;;;;32.25;24.75;;;;;17.53;50.92;100815.12;146600;582;46017;-71
2022/03/30 09:20:07;;;;;;;;;24.75;24.25;;;;;17.58;49.24;100814.34;146608;628;45027;-71
2022/03/30 09:23:01;;;;;;;;;25.00;19.50;;;;;17.60;47.38;100802.16;146605;758;46017;-71
2022/03/30 09:25:54;;;;;;;;;25.50;21.25;;;;;17.61;46.89;100803.94;146603;609;46021;-72
2022/03/30 09:28:47;;;;;;;;;21.00;16.75;;;;;17.68;47.67;100798.00;146602;587;46912;-71
2022/03/30 09:31:41;;;;;;;;;15.25;13.25;;;;;17.78;45.54;100792.13;146609;671;46021;-70
2022/03/30 09:34:50;;;;;;;;;24.50;20.50;;;;;17.88;47.55;100799.37;146600;586;46016;-72
2022/03/30 09:37:46;;;;;;;;;21.50;18.50;;;;;18.07;45.99;100798.06;146606;587;46029;-71
2022/03/30 09:40:40;;;;;;;;;23.00;18.50;;;;;18.14;45.64;100805.19;146602;575;46010;-70
2022/03/30 09:43:34;;;;;;;;;21.50;19.25;;;;;18.10;44.35;100812.94;146604;615;46020;-70
2022/03/30 09:46:26;;;;;;;;;23.00;19.50;;;;;18.07;44.53;100789.25;146604;576;46030;-71
2022/03/30 09:49:47;;;;;;;;;25.00;23.25;;;;;18.00;46.29;100775.13;146604;653;47008;-71
2022/03/30 09:52:39;;;;;;;;;24.50;21.50;;;;;18.00;45.32;100773.38;146601;564;47013;-71
2022/03/30 09:55:32;;;;;;;;;20.00;18.25;;;;;17.89;45.84;100759.16;146608;577;45026;-70
2022/03/30 09:58:25;;;;;;;;;19.25;18.50;;;;;17.86;44.96;100760.84;146604;588;46912;-71
2022/03/30 10:01:23;;;;;;;;;26.50;24.50;;;;;17.79;46.10;100746.72;146606;640;46008;-71
2022/03/30 10:04:16;;;;;;;;;29.00;23.75;;;;;17.76;46.32;100744.88;146603;595;46912;-71
2022/03/30 10:07:09;;;;;;;;;25.25;25.25;;;;;17.71;45.39;100746.50;146605;588;46020;-71
2022/03/30 10:10:02;;;;;;;;;25.25;21.25;;;;;17.80;46.62;100732.72;146603;588;46016;-71
2022/03/30 10:12:54;;;;;;;;;30.50;23.50;;;;;18.00;44.58;100741.91;146602;577;46020;-71
2022/03/30 10:15:47;;;;;;;;;20.00;16.50;;;;;18.29;47.55;100741.66;146600;704;47010;-72
2022/03/30 10:18:39;;;;;;;;;27.00;24.50;;;;;18.76;46.19;100746.97;146607;664;46008;-71
2022/03/30 10:22:06;;;;;;;;;27.25;24.75;;;;;19.29;46.70;100738.22;146604;628;46016;-71
2022/03/30 10:25:30;;;;;;;;;29.50;25.75;;;;;18.73;45.31;100584.03;146607;628;46021;-72
2022/03/30 10:28:47;;;;;;;;;26.50;22.75;;;;;19.77;44.61;100735.44;146604;569;47010;-71
2022/03/30 10:31:39;;;;;;;;;31.00;29.00;;;;;19.96;43.43;100733.94;146606;796;47008;-73
2022/03/30 10:34:32;;;;;;;;;32.00;28.00;;;;;19.28;43.13;100576.97;146602;613;46016;-71
2022/03/30 10:37:39;;;;;;;;;29.00;25.00;;;;;20.30;44.12;100723.84;146605;590;46020;-71
2022/03/30 10:40:31;;;;;;;;;21.25;20.00;;;;;20.36;42.73;100723.91;146603;588;46016;-71
2022/03/30 10:43:30;;;;;;;;;22.75;20.00;;;;;20.33;42.90;100717.72;146604;594;46020;-71
2022/03/30 10:46:40;;;;;;;;;15.00;10.75;;;;;20.20;43.84;100717.59;146604;589;46017;-72
2022/03/30 10:49:55;;;;;;;;;19.00;16.00;;;;;20.04;43.53;100703.34;146604;584;46027;-71
2022/03/30 10:52:49;;;;;;;;;20.75;18.50;;;;;19.87;40.64;100702.25;146601;657;46016;-72
2022/03/30 10:55:41;;;;;;;;;19.25;14.50;;;;;19.67;39.17;100704.63;146608;669;46020;-71
2022/03/30 10:58:33;;;;;;;;;19.50;16.25;;;;;19.49;40.46;100699.94;146604;595;46010;-71
2022/03/30 11:01:34;;;;;;;;;25.75;23.00;;;;;19.36;42.40;100700.63;146607;613;46021;-72
2022/03/30 11:04:28;;;;;;;;;22.00;18.25;;;;;19.31;41.49;100694.41;146604;564;46016;-71
2022/03/30 11:07:40;;;;;;;;;27.00;22.50;;;;;18.64;44.87;100570.72;146608;648;46021;-71
2022/03/30 11:10:50;;;;;;;;;17.25;13.75;;;;;19.51;39.99;100689.47;146601;622;47010;-71
2022/03/30 11:13:42;;;;;;;;;22.00;20.00;;;;;18.79;41.89;100559.63;146603;654;47008;-71
2022/03/30 11:16:51;;;;;;;;;24.00;19.00;;;;;19.60;41.53;100695.72;146602;577;46017;-71
2022/03/30 11:20:14;;;;;;;;;22.75;18.50;;;;;18.70;45.09;100528.81;146607;571;46008;-72
2022/03/30 11:23:26;;;;;;;;;19.00;16.00;;;;;19.82;44.94;100685.53;146606;571;46010;-71
2022/03/30 11:26:18;;;;;;;;;27.50;26.25;;;;;19.93;41.75;100680.41;146606;586;46008;-71
2022/03/30 11:29:48;;;;;;;;;26.25;22.75;;;;;19.13;43.81;100524.19;146602;587;46912;-71
2022/03/30 11:33:10;;;;;;;;;22.50;20.25;;;;;19.95;40.04;100673.41;146608;570;46012;-71
2022/03/30 11:36:02;;;;;;;;;21.50;16.50;;;;;19.97;42.27;100666.41;146602;579;46016;-72
2022/03/30 11:39:00;;;;;;;;;19.50;18.75;;;;;19.92;41.16;100676.00;146603;632;46021;-72
2022/03/30 11:41:58;;;;;;;;;20.25;16.50;;;;;19.92;43.03;100674.25;146603;565;46016;-72
2022/03/30 11:48:11;;;;;;;;;22.00;19.50;;;;;20.15;43.14;100665.75;146599;725;46910;-72
2022/03/30 11:51:05;;;;;;;;;19.50;18.00;;;;;20.14;41.84;100662.22;146607;612;46008;-71
2022/03/30 11:54:23;;;;;;;;;20.25;15.75;;;;;20.17;43.14;100666.66;146598;583;47912;-71
2022/03/30 11:57:15;;;;;;;;;18.25;16.00;;;;;20.14;41.59;100670.13;146608;596;46020;-72
2022/03/30 12:00:11;;;;;;;;;20.50;16.50;;;;;20.10;39.24;100663.06;146601;570;47011;-71
2022/03/30 12:03:05;;;;;;;;;19.00;16.25;;;;;20.09;41.44;100653.38;146609;619;46008;-72
2022/03/30 12:05:59;;;;;;;;;20.25;16.25;;;;;19.56;40.49;100567.69;146606;616;47013;-71
2022/03/30 12:08:53;;;;;;;;;22.25;18.00;;;;;20.19;41.20;100657.91;146606;613;47008;-73
2022/03/30 12:11:46;;;;;;;;;15.75;14.00;;;;;20.19;39.20;100636.84;146605;637;46016;-72
2022/03/30 12:14:39;;;;;;;;;13.00;12.00;;;;;20.19;38.83;100636.84;146605;602;47008;-72
2022/03/30 12:17:32;;;;;;;;;14.25;13.25;;;;;19.92;39.25;100576.00;146602;641;46016;-72
2022/03/30 12:20:31;;;;;;;;;15.00;12.50;;;;;20.28;40.85;100618.50;146605;584;47012;-72
2022/03/30 12:23:23;;;;;;;;;17.25;14.50;;;;;20.37;39.32;100608.91;146603;688;46913;-71
2022/03/30 12:26:19;;;;;;;;;17.75;14.75;;;;;20.40;37.26;100599.28;146604;730;46020;-72
2022/03/30 12:29:14;;;;;;;;;15.50;11.25;;;;;20.45;37.88;100604.62;146603;606;46016;-72
2022/03/30 12:32:10;;;;;;;;;14.50;12.75;;;;;20.48;37.46;100592.34;146604;597;47008;-72
2022/03/30 12:35:19;;;;;;;;;12.00;10.00;;;;;20.52;39.93;100588.03;146601;636;46010;-71
2022/03/30 12:38:15;;;;;;;;;11.25;10.75;;;;;20.51;35.59;100587.16;146607;608;46008;-72
2022/03/30 12:41:07;;;;;;;;;16.50;11.25;;;;;20.49;37.43;100583.56;146597;573;48912;-71
2022/03/30 12:44:07;;;;;;;;;14.25;13.50;;;;;20.44;40.01;100581.78;146605;574;46008;-71
2022/03/30 12:47:01;;;;;;;;;13.75;11.25;;;;;20.35;38.60;100579.06;146603;713;46016;-71
2022/03/30 12:49:56;;;;;;;;;18.50;12.75;;;;;20.32;38.61;100576.41;146606;572;46008;-72
2022/03/30 12:52:53;;;;;;;;;12.75;9.50;;;;;20.25;37.43;100565.81;146605;600;46017;-72
2022/03/30 12:55:53;;;;;;;;;15.50;11.50;;;;;20.20;38.66;100558.75;146605;600;46020;-72
2022/03/30 12:59:00;;;;;;;;;12.75;10.25;;;;;20.16;38.72;100560.47;146602;628;47011;-71
2022/03/30 13:01:52;;;;;;;;;10.00;8.50;;;;;20.15;38.67;100552.53;146606;579;47008;-72
2022/03/30 13:04:56;;;;;;;;;16.75;11.75;;;;;20.19;39.58;100546.47;146602;575;46012;-72
2022/03/30 13:07:55;;;;;;;;;15.50;13.25;;;;;20.20;41.03;100554.34;146605;595;47008;-72
2022/03/30 13:11:13;;;;;;;;;14.25;12.25;;;;;19.38;40.89;100421.09;146603;609;47010;-72
2022/03/30 13:14:06;;;;;;;;;15.50;12.00;;;;;20.12;39.56;100548.13;146604;565;46021;-72
2022/03/30 13:17:09;;;;;;;;;13.50;10.25;;;;;20.18;39.80;100550.81;146603;578;46016;-72
2022/03/30 13:20:06;;;;;;;;;14.50;10.75;;;;;20.33;40.23;100554.47;146606;602;46012;-72
2022/03/30 13:23:10;;;;;;;;;10.25;9.00;;;;;20.60;40.75;100553.84;146601;588;46032;-71
2022/03/30 13:26:02;;;;;;;;;13.50;12.25;;;;;20.84;38.95;100553.13;146606;635;46020;-72
2022/03/30 13:28:55;;;;;;;;;13.75;10.25;;;;;21.04;39.10;100548.00;146603;668;47010;-72
2022/03/30 13:31:47;;;;;;;;;14.75;11.00;;;;;21.28;38.97;100547.22;146604;596;46008;-72